createdAt,value
2019-03-04T00:00:36.793Z,56.55
2019-03-04T00:01:16.199Z,56.52
2019-03-04T00:01:53.741Z,56.14
2019-03-04T00:02:29.684Z,56.17
2019-03-04T00:03:05.950Z,56.09
2019-03-04T00:03:41.405Z,56.14
2019-03-04T00:04:16.830Z,56.08
2019-03-04T00:04:52.255Z,55.96
2019-03-04T00:05:27.925Z,55.96
2019-03-04T00:06:03.417Z,55.91
2019-03-04T00:06:39.102Z,55.80
2019-03-04T00:07:14.574Z,55.80
2019-03-04T00:07:50.093Z,55.81
2019-03-04T00:08:25.710Z,55.83
2019-03-04T00:09:01.418Z,55.71
2019-03-04T00:09:37.013Z,55.53
2019-03-04T00:10:12.401Z,55.28
2019-03-04T00:10:47.835Z,55.35
2019-03-04T00:11:23.497Z,55.29
2019-03-04T00:11:58.899Z,54.99
2019-03-04T00:12:34.914Z,55.07
2019-03-04T00:13:10.571Z,55.22
2019-03-04T00:13:46.195Z,55.15
2019-03-04T00:14:21.607Z,54.99
2019-03-04T00:14:57.009Z,54.84
2019-03-04T00:15:32.811Z,54.70
2019-03-04T00:16:08.205Z,54.74
2019-03-04T00:16:43.889Z,54.57
2019-03-04T00:17:19.392Z,54.45
2019-03-04T00:17:54.865Z,54.45
2019-03-04T00:18:30.408Z,54.45
2019-03-04T00:19:05.960Z,54.42
2019-03-04T00:19:41.349Z,54.17
2019-03-04T00:20:16.738Z,54.14
2019-03-04T00:20:52.145Z,54.27
2019-03-04T00:21:27.864Z,54.28
2019-03-04T00:22:03.370Z,54.12
2019-03-04T00:22:39.045Z,54.12
2019-03-04T00:23:14.683Z,54.05
2019-03-04T00:23:50.631Z,54.00
2019-03-04T00:24:26.258Z,53.80
2019-03-04T00:25:01.963Z,53.77
2019-03-04T00:25:37.666Z,53.82
2019-03-04T00:26:13.312Z,53.68
2019-03-04T00:26:48.716Z,53.76
2019-03-04T00:27:24.130Z,53.76
2019-03-04T00:27:59.875Z,53.60
2019-03-04T00:28:35.642Z,53.55
2019-03-04T00:29:11.315Z,53.42
2019-03-04T00:29:46.957Z,53.45
2019-03-04T00:30:22.949Z,53.45
2019-03-04T00:30:58.506Z,53.39
2019-03-04T00:31:34.691Z,53.32
2019-03-04T00:32:10.324Z,53.28
2019-03-04T00:32:45.717Z,53.25
2019-03-04T00:33:21.442Z,53.30
2019-03-04T00:33:56.839Z,53.18
2019-03-04T00:34:32.315Z,53.16
2019-03-04T00:35:08.052Z,53.20
2019-03-04T00:35:43.790Z,53.11
2019-03-04T00:36:19.176Z,53.16
2019-03-04T00:36:54.640Z,53.15
2019-03-04T00:37:30.390Z,53.24
2019-03-04T00:38:06.174Z,53.26
2019-03-04T00:38:41.602Z,53.08
2019-03-04T00:39:17.126Z,53.08
2019-03-04T00:39:53.350Z,53.10
2019-03-04T00:40:28.876Z,53.11
2019-03-04T00:41:04.406Z,53.19
2019-03-04T00:41:39.828Z,53.21
2019-03-04T00:42:15.479Z,53.23
2019-03-04T00:42:50.906Z,53.23
2019-03-04T00:43:26.327Z,53.21
2019-03-04T00:44:01.787Z,53.12
2019-03-04T00:44:37.604Z,53.25
2019-03-04T00:45:13.201Z,53.32
2019-03-04T00:45:48.879Z,53.39
2019-03-04T00:46:24.271Z,53.27
2019-03-04T00:46:59.683Z,53.31
2019-03-04T00:47:35.221Z,53.31
2019-03-04T00:48:10.661Z,53.30
2019-03-04T00:48:46.082Z,53.27
2019-03-04T00:49:21.465Z,53.20
2019-03-04T00:49:57.106Z,53.16
2019-03-04T00:50:32.655Z,53.09
2019-03-04T00:51:08.436Z,52.94
2019-03-04T00:51:43.821Z,52.89
2019-03-04T00:52:19.217Z,53.03
2019-03-04T00:52:54.697Z,53.03
2019-03-04T00:53:30.311Z,52.80
2019-03-04T00:54:06.077Z,52.88
2019-03-04T00:54:41.483Z,52.92
2019-03-04T00:55:18.271Z,52.91
2019-03-04T00:55:53.679Z,53.12
2019-03-04T00:56:29.140Z,53.33
2019-03-04T00:57:04.624Z,53.05
2019-03-04T00:57:40.779Z,53.05
2019-03-04T00:58:16.182Z,52.93
2019-03-04T00:58:51.568Z,52.78
2019-03-04T00:59:26.962Z,52.75
2019-03-04T01:00:02.698Z,53.01
2019-03-04T01:00:38.276Z,53.01
2019-03-04T01:01:13.667Z,52.87
2019-03-04T01:01:49.386Z,52.88
2019-03-04T01:02:25.029Z,52.74
2019-03-04T01:03:00.462Z,52.69
2019-03-04T01:03:36.507Z,52.75
2019-03-04T01:04:11.913Z,52.85
2019-03-04T01:04:47.404Z,53.02
2019-03-04T01:05:22.925Z,52.99
2019-03-04T01:05:58.338Z,52.86
2019-03-04T01:06:33.810Z,53.06
2019-03-04T01:07:09.785Z,53.06
2019-03-04T01:07:45.803Z,53.05
2019-03-04T01:08:21.486Z,53.05
2019-03-04T01:08:56.867Z,53.13
2019-03-04T01:09:32.297Z,53.07
2019-03-04T01:10:08.443Z,52.91
2019-03-04T01:10:44.086Z,52.85
2019-03-04T01:11:19.482Z,52.85
2019-03-04T01:11:54.883Z,53.08
2019-03-04T01:12:30.313Z,53.35
2019-03-04T01:13:05.736Z,53.33
2019-03-04T01:13:41.534Z,53.24
2019-03-04T01:14:16.956Z,53.26
2019-03-04T01:14:52.602Z,53.28
2019-03-04T01:15:28.551Z,53.16
2019-03-04T01:16:03.963Z,53.08
2019-03-04T01:16:39.346Z,53.17
2019-03-04T01:17:14.740Z,53.23
2019-03-04T01:17:50.159Z,53.35
2019-03-04T01:18:25.588Z,53.56
2019-03-04T01:19:01.086Z,53.70
2019-03-04T01:19:36.802Z,54.05
2019-03-04T01:20:13.983Z,54.48
2019-03-04T01:20:49.379Z,54.24
2019-03-04T01:21:24.790Z,54.97
2019-03-04T01:22:00.338Z,54.80
2019-03-04T01:22:35.797Z,55.55
2019-03-04T01:23:11.483Z,55.73
2019-03-04T01:23:46.863Z,55.63
2019-03-04T01:24:22.276Z,55.46
2019-03-04T01:24:57.649Z,55.20
2019-03-04T01:25:33.206Z,55.20
2019-03-04T01:26:08.917Z,55.68
2019-03-04T01:26:44.327Z,55.93
2019-03-04T01:27:19.746Z,56.10
2019-03-04T01:27:55.160Z,56.04
2019-03-04T01:28:30.943Z,55.59
2019-03-04T01:29:06.387Z,55.36
2019-03-04T01:29:41.775Z,55.99
2019-03-04T01:30:19.180Z,55.92
2019-03-04T01:30:54.573Z,55.92
2019-03-04T01:31:30.010Z,55.87
2019-03-04T01:32:05.417Z,56.10
2019-03-04T01:32:40.833Z,55.87
2019-03-04T01:33:16.334Z,55.38
2019-03-04T01:33:51.713Z,54.54
2019-03-04T01:34:27.126Z,54.54
2019-03-04T01:35:03.107Z,55.05
2019-03-04T01:35:38.538Z,55.29
2019-03-04T01:36:13.948Z,55.30
2019-03-04T01:36:49.621Z,55.26
2019-03-04T01:37:25.318Z,55.54
2019-03-04T01:38:01.021Z,54.90
2019-03-04T01:38:36.759Z,54.64
2019-03-04T01:39:12.166Z,54.40
2019-03-04T01:39:47.837Z,54.71
2019-03-04T01:40:23.509Z,54.71
2019-03-04T01:40:58.951Z,54.65
2019-03-04T01:41:34.672Z,54.47
2019-03-04T01:42:10.065Z,54.30
2019-03-04T01:42:45.476Z,54.39
2019-03-04T01:43:21.145Z,54.39
2019-03-04T01:43:57.247Z,54.24
2019-03-04T01:44:32.979Z,53.94
2019-03-04T01:45:09.700Z,54.14
2019-03-04T01:45:45.359Z,54.14
2019-03-04T01:46:20.741Z,54.36
2019-03-04T01:46:56.420Z,54.43
2019-03-04T01:47:32.150Z,54.08
2019-03-04T01:48:07.836Z,54.74
2019-03-04T01:48:43.221Z,54.55
2019-03-04T01:49:18.614Z,54.55
2019-03-04T01:49:54.041Z,54.27
2019-03-04T01:50:29.736Z,54.19
2019-03-04T01:51:05.493Z,54.28
2019-03-04T01:51:41.491Z,54.13
2019-03-04T01:52:16.943Z,54.27
2019-03-04T01:52:53.044Z,54.52
2019-03-04T01:53:28.524Z,54.09
2019-03-04T01:54:04.029Z,54.31
2019-03-04T01:54:39.434Z,54.16
2019-03-04T01:55:16.049Z,53.99
2019-03-04T01:55:51.485Z,54.19
2019-03-04T01:56:27.229Z,54.07
2019-03-04T01:57:02.678Z,53.95
2019-03-04T01:57:38.091Z,53.96
2019-03-04T01:58:13.533Z,54.29
2019-03-04T01:58:49.194Z,54.14
2019-03-04T01:59:24.590Z,54.06
2019-03-04T02:00:00.028Z,54.12
2019-03-04T02:00:35.694Z,54.19
2019-03-04T02:01:11.128Z,54.25
2019-03-04T02:01:46.842Z,54.33
2019-03-04T02:02:22.769Z,54.11
2019-03-04T02:02:58.341Z,53.94
2019-03-04T02:03:34.043Z,53.94
2019-03-04T02:04:09.708Z,53.81
2019-03-04T02:04:45.099Z,53.76
2019-03-04T02:05:21.124Z,53.76
2019-03-04T02:05:56.843Z,53.70
2019-03-04T02:06:32.426Z,53.64
2019-03-04T02:07:08.093Z,53.81
2019-03-04T02:07:43.626Z,53.85
2019-03-04T02:08:19.060Z,53.92
2019-03-04T02:08:54.453Z,53.76
2019-03-04T02:09:30.180Z,53.38
2019-03-04T02:10:06.602Z,53.49
2019-03-04T02:10:42.247Z,53.43
2019-03-04T02:11:18.219Z,53.55
2019-03-04T02:11:53.612Z,53.63
2019-03-04T02:12:29.086Z,53.70
2019-03-04T02:13:04.784Z,53.79
2019-03-04T02:13:40.288Z,53.78
2019-03-04T02:14:15.983Z,53.60
2019-03-04T02:14:51.375Z,53.49
2019-03-04T02:15:26.768Z,53.28
2019-03-04T02:16:02.474Z,53.28
2019-03-04T02:16:37.899Z,53.13
2019-03-04T02:17:13.540Z,53.18
2019-03-04T02:17:49.058Z,53.30
2019-03-04T02:18:25.009Z,53.18
2019-03-04T02:19:00.434Z,53.13
2019-03-04T02:19:35.890Z,53.22
2019-03-04T02:20:12.141Z,53.22
2019-03-04T02:20:48.428Z,53.24
2019-03-04T02:21:23.853Z,53.27
2019-03-04T02:21:59.541Z,53.14
2019-03-04T02:22:34.974Z,53.14
2019-03-04T02:23:10.402Z,53.26
2019-03-04T02:23:46.032Z,53.12
2019-03-04T02:24:27.998Z,53.00
2019-03-04T02:25:03.430Z,53.03
2019-03-04T02:26:14.806Z,53.09
2019-03-04T02:26:50.187Z,53.07
2019-03-04T02:27:25.829Z,52.97
2019-03-04T02:28:01.254Z,52.97
2019-03-04T02:28:37.306Z,53.06
2019-03-04T02:29:12.689Z,52.98
2019-03-04T02:29:48.092Z,52.98
2019-03-04T02:30:25.707Z,53.16
2019-03-04T02:31:01.144Z,53.20
2019-03-04T02:31:36.601Z,53.20
2019-03-04T02:32:12.534Z,53.36
2019-03-04T02:32:47.925Z,53.44
2019-03-04T02:33:23.966Z,53.38
2019-03-04T02:33:59.702Z,53.49
2019-03-04T02:34:35.373Z,53.58
2019-03-04T02:35:11.006Z,53.65
2019-03-04T02:35:46.389Z,53.58
2019-03-04T02:36:21.800Z,53.57
2019-03-04T02:36:57.491Z,53.62
2019-03-04T02:37:33.230Z,53.75
2019-03-04T02:38:08.744Z,53.75
2019-03-04T02:38:44.127Z,53.49
2019-03-04T02:39:19.602Z,53.54
2019-03-04T02:39:55.010Z,53.83
2019-03-04T02:40:30.723Z,53.71
2019-03-04T02:41:06.183Z,53.82
2019-03-04T02:41:41.578Z,54.12
2019-03-04T02:42:17.231Z,54.24
2019-03-04T02:42:52.949Z,54.07
2019-03-04T02:43:28.444Z,54.22
2019-03-04T02:44:04.258Z,54.38
2019-03-04T02:44:39.715Z,54.44
2019-03-04T02:45:17.485Z,54.87
2019-03-04T02:45:53.146Z,54.87
2019-03-04T02:46:28.904Z,54.61
2019-03-04T02:47:04.368Z,54.51
2019-03-04T02:47:40.039Z,54.28
2019-03-04T02:48:15.427Z,54.15
2019-03-04T02:48:50.918Z,54.15
2019-03-04T02:49:26.390Z,54.47
2019-03-04T02:50:01.839Z,54.34
2019-03-04T02:50:37.337Z,54.34
2019-03-04T02:51:13.122Z,54.49
2019-03-04T02:51:48.747Z,54.38
2019-03-04T02:52:24.153Z,54.38
2019-03-04T02:52:59.578Z,54.52
2019-03-04T02:53:35.573Z,54.52
2019-03-04T02:54:10.982Z,54.52
2019-03-04T02:54:46.679Z,54.02
2019-03-04T02:55:22.100Z,54.08
2019-03-04T02:55:57.785Z,53.91
2019-03-04T02:56:33.247Z,53.92
2019-03-04T02:57:08.665Z,53.92
2019-03-04T02:57:44.313Z,53.21
2019-03-04T02:58:19.991Z,53.03
2019-03-04T02:58:55.654Z,53.17
2019-03-04T02:59:31.233Z,53.21
2019-03-04T03:00:08.405Z,53.24
2019-03-04T03:00:43.821Z,53.25
2019-03-04T03:01:19.226Z,53.02
2019-03-04T03:01:54.622Z,53.21
2019-03-04T03:02:30.116Z,53.30
2019-03-04T03:03:05.507Z,53.40
2019-03-04T03:03:40.905Z,53.64
2019-03-04T03:04:16.579Z,53.64
2019-03-04T03:04:52.238Z,53.80
2019-03-04T03:05:27.619Z,53.79
2019-03-04T03:06:03.344Z,53.77
2019-03-04T03:06:39.055Z,53.86
2019-03-04T03:07:14.723Z,53.84
2019-03-04T03:07:50.118Z,53.92
2019-03-04T03:08:25.511Z,54.12
2019-03-04T03:09:00.929Z,54.05
2019-03-04T03:09:36.715Z,53.77
2019-03-04T03:10:12.307Z,53.77
2019-03-04T03:10:47.712Z,53.75
2019-03-04T03:11:23.348Z,53.71
2019-03-04T03:11:58.782Z,53.75
2019-03-04T03:12:34.316Z,53.91
2019-03-04T03:13:09.961Z,53.97
2019-03-04T03:13:45.358Z,53.84
2019-03-04T03:14:20.754Z,53.66
2019-03-04T03:14:56.139Z,53.58
2019-03-04T03:15:31.567Z,53.80
2019-03-04T03:16:07.267Z,54.02
2019-03-04T03:16:42.684Z,54.08
2019-03-04T03:17:18.086Z,53.97
2019-03-04T03:17:53.731Z,54.03
2019-03-04T03:18:29.416Z,53.80
2019-03-04T03:19:05.083Z,53.78
2019-03-04T03:19:40.805Z,53.84
2019-03-04T03:20:16.309Z,53.98
2019-03-04T03:20:51.712Z,53.89
2019-03-04T03:21:27.124Z,53.96
2019-03-04T03:22:02.659Z,53.96
2019-03-04T03:22:38.079Z,53.90
2019-03-04T03:23:13.461Z,54.00
2019-03-04T03:23:48.851Z,54.00
2019-03-04T03:24:24.367Z,53.84
2019-03-04T03:25:00.716Z,53.84
2019-03-04T03:25:36.173Z,54.01
2019-03-04T03:26:11.573Z,54.18
2019-03-04T03:26:46.983Z,54.01
2019-03-04T03:27:22.393Z,54.01
2019-03-04T03:27:58.059Z,54.23
2019-03-04T03:28:34.087Z,54.42
2019-03-04T03:29:09.514Z,54.26
2019-03-04T03:29:44.893Z,54.34
2019-03-04T03:30:20.321Z,54.46
2019-03-04T03:30:55.726Z,54.39
2019-03-04T03:31:31.132Z,54.38
2019-03-04T03:32:07.122Z,54.61
2019-03-04T03:32:42.513Z,54.71
2019-03-04T03:33:17.891Z,54.74
2019-03-04T03:33:53.576Z,54.99
2019-03-04T03:34:28.984Z,54.99
2019-03-04T03:35:08.089Z,54.82
2019-03-04T03:35:41.576Z,54.89
2019-03-04T03:36:16.968Z,54.95
2019-03-04T03:36:52.387Z,55.05
2019-03-04T03:37:28.149Z,54.78
2019-03-04T03:38:03.518Z,54.78
2019-03-04T03:38:38.914Z,54.95
2019-03-04T03:39:14.539Z,54.87
2019-03-04T03:39:49.920Z,54.82
2019-03-04T03:40:25.617Z,55.00
2019-03-04T03:41:01.016Z,55.10
2019-03-04T03:41:36.457Z,54.98
2019-03-04T03:42:11.891Z,54.83
2019-03-04T03:42:47.875Z,54.72
2019-03-04T03:43:23.571Z,54.72
2019-03-04T03:43:58.961Z,54.42
2019-03-04T03:44:34.562Z,54.42
2019-03-04T03:45:10.162Z,54.74
2019-03-04T03:45:45.531Z,54.74
2019-03-04T03:46:20.931Z,54.79
2019-03-04T03:46:56.585Z,54.87
2019-03-04T03:47:32.155Z,54.87
2019-03-04T03:48:07.568Z,55.04
2019-03-04T03:48:43.241Z,54.99
2019-03-04T03:49:18.619Z,54.78
2019-03-04T03:49:54.030Z,54.69
2019-03-04T03:50:29.469Z,54.89
2019-03-04T03:51:05.199Z,55.07
2019-03-04T03:51:40.588Z,55.06
2019-03-04T03:52:16.279Z,55.14
2019-03-04T03:52:51.944Z,55.14
2019-03-04T03:53:27.355Z,55.12
2019-03-04T03:54:02.781Z,55.24
2019-03-04T03:54:38.208Z,55.24
2019-03-04T03:55:13.854Z,55.21
2019-03-04T03:55:49.558Z,55.16
2019-03-04T03:56:24.968Z,55.16
2019-03-04T03:57:00.399Z,54.76
2019-03-04T03:57:35.842Z,54.98
2019-03-04T03:58:11.219Z,55.21
2019-03-04T03:58:46.613Z,55.10
2019-03-04T03:59:22.111Z,54.99
2019-03-04T03:59:57.762Z,55.06
2019-03-04T04:00:33.183Z,55.06
2019-03-04T04:01:08.593Z,55.27
2019-03-04T04:01:43.993Z,55.28
2019-03-04T04:02:19.412Z,55.51
2019-03-04T04:02:54.793Z,55.28
2019-03-04T04:03:30.471Z,55.30
2019-03-04T04:04:06.252Z,55.30
2019-03-04T04:04:41.639Z,55.30
2019-03-04T04:05:17.138Z,55.15
2019-03-04T04:05:52.825Z,55.15
2019-03-04T04:06:28.347Z,55.08
2019-03-04T04:07:03.772Z,55.18
2019-03-04T04:07:39.519Z,55.21
2019-03-04T04:08:15.092Z,55.04
2019-03-04T04:08:50.503Z,54.93
2019-03-04T04:09:26.287Z,54.95
2019-03-04T04:10:01.799Z,55.06
2019-03-04T04:10:37.205Z,54.90
2019-03-04T04:11:12.600Z,54.92
2019-03-04T04:11:48.008Z,54.91
2019-03-04T04:12:23.419Z,54.91
2019-03-04T04:12:58.829Z,54.86
2019-03-04T04:13:34.325Z,54.86
2019-03-04T04:14:10.027Z,54.52
2019-03-04T04:14:45.430Z,54.33
2019-03-04T04:15:21.402Z,54.45
2019-03-04T04:15:57.042Z,54.54
2019-03-04T04:16:32.510Z,54.55
2019-03-04T04:17:08.241Z,54.38
2019-03-04T04:17:43.669Z,54.44
2019-03-04T04:18:19.065Z,54.46
2019-03-04T04:18:54.779Z,54.52
2019-03-04T04:19:30.205Z,54.52
2019-03-04T04:20:06.135Z,54.74
2019-03-04T04:20:41.543Z,54.78
2019-03-04T04:21:17.177Z,54.86
2019-03-04T04:21:52.565Z,54.73
2019-03-04T04:22:28.049Z,54.81
2019-03-04T04:23:03.842Z,54.90
2019-03-04T04:23:39.492Z,55.05
2019-03-04T04:24:15.194Z,55.19
2019-03-04T04:24:50.987Z,55.46
2019-03-04T04:25:26.382Z,55.40
2019-03-04T04:26:02.066Z,55.50
2019-03-04T04:26:37.557Z,55.70
2019-03-04T04:27:12.942Z,55.91
2019-03-04T04:27:48.382Z,56.09
2019-03-04T04:28:23.788Z,56.31
2019-03-04T04:29:06.643Z,56.32
2019-03-04T04:29:42.329Z,56.37
2019-03-04T04:30:19.194Z,56.26
2019-03-04T04:30:54.578Z,56.19
2019-03-04T04:31:30.366Z,56.33
2019-03-04T04:32:05.928Z,56.45
2019-03-04T04:32:41.349Z,56.70
2019-03-04T04:33:16.746Z,56.90
2019-03-04T04:33:52.135Z,56.79
2019-03-04T04:34:28.170Z,56.88
2019-03-04T04:35:03.903Z,56.62
2019-03-04T04:35:39.614Z,56.68
2019-03-04T04:36:14.961Z,56.97
2019-03-04T04:36:50.351Z,56.98
2019-03-04T04:37:25.749Z,56.76
2019-03-04T04:38:01.274Z,56.63
2019-03-04T04:38:36.754Z,56.72
2019-03-04T04:39:12.150Z,56.80
2019-03-04T04:39:47.799Z,56.71
2019-03-04T04:40:23.468Z,56.92
2019-03-04T04:40:58.900Z,56.62
2019-03-04T04:41:34.312Z,56.57
2019-03-04T04:42:10.064Z,56.69
2019-03-04T04:42:45.481Z,56.66
2019-03-04T04:43:20.877Z,56.50
2019-03-04T04:43:56.565Z,56.42
2019-03-04T04:44:32.384Z,56.52
2019-03-04T04:45:08.045Z,56.50
2019-03-04T04:45:43.461Z,56.50
2019-03-04T04:46:29.951Z,56.42
2019-03-04T04:47:08.722Z,56.68
2019-03-04T04:47:44.130Z,56.82
2019-03-04T04:48:19.533Z,56.71
2019-03-04T04:48:54.924Z,56.46
2019-03-04T04:49:32.021Z,56.40
2019-03-04T04:50:09.002Z,56.31
2019-03-04T04:50:44.412Z,56.15
2019-03-04T04:51:20.055Z,56.23
2019-03-04T04:51:55.691Z,56.26
2019-03-04T04:52:31.778Z,55.90
2019-03-04T04:53:07.246Z,55.74
2019-03-04T04:53:42.891Z,55.53
2019-03-04T04:54:18.271Z,55.63
2019-03-04T04:54:53.664Z,55.57
2019-03-04T04:55:29.110Z,55.36
2019-03-04T04:56:04.922Z,55.44
2019-03-04T04:56:40.363Z,55.50
2019-03-04T04:57:16.298Z,55.25
2019-03-04T04:57:52.105Z,55.17
2019-03-04T04:58:27.832Z,55.21
2019-03-04T04:59:03.586Z,55.28
2019-03-04T04:59:38.999Z,55.18
2019-03-04T05:00:14.830Z,55.09
2019-03-04T05:00:50.217Z,54.97
2019-03-04T05:01:25.721Z,55.05
2019-03-04T05:02:01.175Z,54.88
2019-03-04T05:02:36.645Z,54.98
2019-03-04T05:03:12.078Z,54.83
2019-03-04T05:03:47.481Z,54.72
2019-03-04T05:04:23.129Z,54.72
2019-03-04T05:04:58.887Z,54.67
2019-03-04T05:05:34.588Z,54.68
2019-03-04T05:06:10.017Z,54.64
2019-03-04T05:06:45.732Z,54.49
2019-03-04T05:07:21.111Z,54.21
2019-03-04T05:07:56.533Z,54.50
2019-03-04T05:08:32.000Z,54.50
2019-03-04T05:09:08.287Z,54.20
2019-03-04T05:09:43.720Z,54.26
2019-03-04T05:10:19.175Z,54.19
2019-03-04T05:10:54.834Z,54.01
2019-03-04T05:11:30.338Z,53.70
2019-03-04T05:12:05.776Z,53.70
2019-03-04T05:12:41.436Z,54.04
2019-03-04T05:13:16.963Z,53.73
2019-03-04T05:13:52.403Z,53.73
2019-03-04T05:14:28.057Z,53.83
2019-03-04T05:15:03.486Z,53.70
2019-03-04T05:15:39.531Z,53.74
2019-03-04T05:16:14.920Z,53.91
2019-03-04T05:16:50.546Z,53.79
2019-03-04T05:17:26.187Z,53.68
2019-03-04T05:18:02.027Z,53.74
2019-03-04T05:18:37.477Z,53.63
2019-03-04T05:19:12.877Z,53.57
2019-03-04T05:19:48.540Z,53.64
2019-03-04T05:20:24.222Z,53.61
2019-03-04T05:20:59.616Z,53.62
2019-03-04T05:21:35.397Z,53.58
2019-03-04T05:22:10.788Z,53.60
2019-03-04T05:22:46.178Z,53.66
2019-03-04T05:23:21.676Z,53.71
2019-03-04T05:23:57.361Z,53.53
2019-03-04T05:24:33.513Z,53.75
2019-03-04T05:25:09.065Z,53.74
2019-03-04T05:25:44.490Z,53.86
2019-03-04T05:26:19.898Z,53.96
2019-03-04T05:26:55.828Z,53.97
2019-03-04T05:27:31.350Z,53.77
2019-03-04T05:28:07.351Z,53.81
2019-03-04T05:28:43.030Z,53.90
2019-03-04T05:29:18.427Z,53.92
2019-03-04T05:29:54.064Z,53.74
2019-03-04T05:30:29.815Z,53.48
2019-03-04T05:31:05.358Z,53.53
2019-03-04T05:31:40.839Z,53.24
2019-03-04T05:32:16.521Z,53.12
2019-03-04T05:32:52.184Z,53.15
2019-03-04T05:33:28.174Z,53.11
2019-03-04T05:34:03.983Z,53.29
2019-03-04T05:34:39.422Z,53.24
2019-03-04T05:35:15.100Z,53.17
2019-03-04T05:35:50.770Z,52.97
2019-03-04T05:36:26.177Z,52.56
2019-03-04T05:37:02.374Z,52.50
2019-03-04T05:37:37.824Z,52.43
2019-03-04T05:38:13.518Z,52.30
2019-03-04T05:38:48.932Z,52.31
2019-03-04T05:39:24.324Z,52.47
2019-03-04T05:39:59.751Z,52.24
2019-03-04T05:40:35.207Z,52.24
2019-03-04T05:41:10.594Z,52.21
2019-03-04T05:41:46.279Z,52.29
2019-03-04T05:42:21.676Z,52.29
2019-03-04T05:42:57.112Z,52.30
2019-03-04T05:43:32.836Z,52.21
2019-03-04T05:44:08.783Z,52.15
2019-03-04T05:44:44.183Z,52.17
2019-03-04T05:45:19.632Z,52.19
2019-03-04T05:45:55.532Z,52.00
2019-03-04T05:46:31.037Z,51.75
2019-03-04T05:47:06.469Z,51.70
2019-03-04T05:47:41.851Z,51.73
2019-03-04T05:48:17.526Z,51.80
2019-03-04T05:48:53.246Z,51.71
2019-03-04T05:49:28.943Z,51.75
2019-03-04T05:50:06.588Z,51.66
2019-03-04T05:50:42.004Z,51.62
2019-03-04T05:51:17.391Z,51.58
2019-03-04T05:51:53.055Z,51.57
2019-03-04T05:52:28.516Z,51.47
2019-03-04T05:53:04.327Z,51.49
2019-03-04T05:53:40.026Z,51.35
2019-03-04T05:54:15.702Z,51.29
2019-03-04T05:54:51.387Z,51.32
2019-03-04T05:55:26.789Z,51.25
2019-03-04T05:56:02.234Z,51.30
2019-03-04T05:56:37.650Z,51.13
2019-03-04T05:57:13.056Z,51.10
2019-03-04T05:57:48.454Z,50.98
2019-03-04T05:58:23.863Z,50.87
2019-03-04T05:58:59.569Z,50.98
2019-03-04T05:59:35.278Z,50.73
2019-03-04T06:00:16.240Z,50.79
2019-03-04T06:01:15.346Z,50.77
2019-03-04T06:02:21.688Z,50.42
2019-03-04T06:02:57.274Z,50.26
2019-03-04T06:03:32.801Z,50.05
2019-03-04T06:04:09.819Z,50.06
2019-03-04T06:04:46.493Z,49.93
2019-03-04T06:05:21.909Z,50.03
2019-03-04T06:05:57.578Z,50.11
2019-03-04T06:07:07.633Z,50.22
2019-03-04T06:07:46.444Z,50.33
2019-03-04T06:08:22.118Z,50.35
2019-03-04T06:08:57.791Z,50.31
2019-03-04T06:09:33.516Z,50.37
2019-03-04T06:10:11.161Z,50.30
2019-03-04T06:10:46.804Z,50.08
2019-03-04T06:11:22.470Z,49.89
2019-03-04T06:11:58.202Z,49.74
2019-03-04T06:12:33.647Z,50.06
2019-03-04T06:13:09.071Z,50.14
2019-03-04T06:13:44.707Z,50.15
2019-03-04T06:14:20.356Z,49.97
2019-03-04T06:14:56.079Z,50.08
2019-03-04T06:15:31.832Z,49.97
2019-03-04T06:16:07.287Z,50.07
2019-03-04T06:16:47.328Z,50.01
2019-03-04T06:17:20.373Z,50.10
2019-03-04T06:17:55.775Z,50.12
2019-03-04T06:18:31.413Z,50.12
2019-03-04T06:19:07.215Z,50.12
2019-03-04T06:19:44.075Z,50.26
2019-03-04T06:20:19.937Z,50.11
2019-03-04T06:20:55.323Z,50.13
2019-03-04T06:21:31.073Z,50.32
2019-03-04T06:22:06.493Z,50.33
2019-03-04T06:22:41.870Z,50.15
2019-03-04T06:23:17.299Z,50.06
2019-03-04T06:23:52.690Z,50.09
2019-03-04T06:24:28.110Z,50.03
2019-03-04T06:25:03.566Z,49.95
2019-03-04T06:25:39.057Z,49.99
2019-03-04T06:26:14.752Z,49.91
2019-03-04T06:26:50.122Z,49.99
2019-03-04T06:27:25.782Z,49.92
2019-03-04T06:28:01.262Z,49.98
2019-03-04T06:28:37.038Z,49.76
2019-03-04T06:29:12.443Z,49.73
2019-03-04T06:29:48.103Z,49.83
2019-03-04T06:30:24.742Z,50.06
2019-03-04T06:31:00.394Z,50.08
2019-03-04T06:31:35.923Z,50.15
2019-03-04T06:32:11.335Z,50.33
2019-03-04T06:32:46.751Z,50.46
2019-03-04T06:33:22.505Z,50.75
2019-03-04T06:33:58.165Z,50.53
2019-03-04T06:34:33.714Z,50.47
2019-03-04T06:35:09.692Z,50.53
2019-03-04T06:35:45.108Z,50.70
2019-03-04T06:36:20.496Z,51.44
2019-03-04T06:36:55.887Z,51.43
2019-03-04T06:37:31.379Z,51.39
2019-03-04T06:38:07.070Z,51.61
2019-03-04T06:38:42.762Z,51.93
2019-03-04T06:39:18.680Z,52.55
2019-03-04T06:39:54.118Z,52.20
2019-03-04T06:40:29.595Z,52.03
2019-03-04T06:41:05.091Z,52.99
2019-03-04T06:41:40.479Z,53.08
2019-03-04T06:42:15.852Z,52.75
2019-03-04T06:42:51.255Z,53.32
2019-03-04T06:43:26.686Z,54.19
2019-03-04T06:44:02.417Z,53.32
2019-03-04T06:44:38.190Z,53.52
2019-03-04T06:45:14.522Z,53.71
2019-03-04T06:45:49.929Z,54.08
2019-03-04T06:46:25.342Z,55.07
2019-03-04T06:47:00.790Z,55.02
2019-03-04T06:47:36.877Z,55.20
2019-03-04T06:48:12.581Z,56.03
2019-03-04T06:48:48.004Z,55.89
2019-03-04T06:49:24.198Z,56.22
2019-03-04T06:50:00.368Z,57.38
2019-03-04T06:50:52.248Z,57.63
2019-03-04T06:51:32.716Z,57.99
2019-03-04T06:52:08.135Z,57.79
2019-03-04T06:52:43.549Z,58.09
2019-03-04T06:53:58.073Z,57.63
2019-03-04T06:54:59.214Z,57.27
2019-03-04T06:56:06.774Z,58.04
2019-03-04T06:56:54.401Z,58.04
2019-03-04T06:57:41.658Z,58.08
2019-03-04T06:58:17.348Z,57.89
2019-03-04T06:58:57.420Z,57.93
2019-03-04T07:00:14.747Z,56.68
2019-03-04T07:00:54.334Z,57.26
2019-03-04T07:01:34.932Z,55.83
2019-03-04T07:02:12.386Z,55.94
2019-03-04T07:02:48.435Z,55.65
2019-03-04T07:03:38.466Z,55.54
2019-03-04T07:04:28.328Z,55.71
2019-03-04T07:05:46.466Z,55.70
2019-03-04T07:06:22.534Z,55.63
2019-03-04T07:06:58.274Z,55.92
2019-03-04T07:07:33.788Z,54.40
2019-03-04T07:08:21.992Z,54.55
2019-03-04T07:09:17.825Z,54.46
2019-03-04T07:09:53.209Z,53.35
2019-03-04T07:10:28.858Z,53.35
2019-03-04T07:11:04.574Z,53.39
2019-03-04T07:11:41.132Z,53.24
2019-03-04T07:12:16.525Z,53.24
2019-03-04T07:12:52.026Z,53.44
2019-03-04T07:13:27.439Z,53.13
2019-03-04T07:14:03.491Z,53.58
2019-03-04T07:14:38.927Z,53.23
2019-03-04T07:15:14.359Z,53.05
2019-03-04T07:15:49.754Z,52.88
2019-03-04T07:16:25.436Z,52.88
2019-03-04T07:17:01.005Z,52.83
2019-03-04T07:17:36.798Z,53.27
2019-03-04T07:18:12.462Z,52.61
2019-03-04T07:18:47.888Z,52.58
2019-03-04T07:19:24.541Z,52.19
2019-03-04T07:20:05.013Z,52.27
2019-03-04T07:20:40.465Z,52.39
2019-03-04T07:21:15.936Z,52.14
2019-03-04T07:21:51.719Z,52.02
2019-03-04T07:22:27.112Z,51.65
2019-03-04T07:23:02.720Z,51.77
2019-03-04T07:23:38.197Z,51.34
2019-03-04T07:24:13.873Z,51.03
2019-03-04T07:24:49.523Z,50.95
2019-03-04T07:25:25.169Z,51.45
2019-03-04T07:26:00.920Z,51.50
2019-03-04T07:26:36.711Z,50.36
2019-03-04T07:27:12.621Z,50.52
2019-03-04T07:27:48.274Z,50.43
2019-03-04T07:28:23.682Z,50.22
2019-03-04T07:28:59.183Z,50.18
2019-03-04T07:29:34.991Z,50.24
2019-03-04T07:30:12.638Z,49.77
2019-03-04T07:30:48.066Z,49.78
2019-03-04T07:31:23.717Z,50.03
2019-03-04T07:31:59.113Z,50.15
2019-03-04T07:32:34.648Z,50.35
2019-03-04T07:33:10.297Z,50.59
2019-03-04T07:33:45.983Z,50.82
2019-03-04T07:34:21.662Z,50.59
2019-03-04T07:34:57.148Z,50.54
2019-03-04T07:35:32.870Z,50.42
2019-03-04T07:36:08.303Z,50.56
2019-03-04T07:36:44.224Z,50.19
2019-03-04T07:37:19.891Z,49.83
2019-03-04T07:38:11.891Z,50.19
2019-03-04T07:39:00.495Z,50.37
2019-03-04T07:39:35.974Z,50.17
2019-03-04T07:40:11.706Z,50.41
2019-03-04T07:40:47.140Z,49.77
2019-03-04T07:41:22.541Z,50.12
2019-03-04T07:41:59.437Z,49.76
2019-03-04T07:42:35.192Z,49.86
2019-03-04T07:43:10.599Z,49.79
2019-03-04T07:43:46.093Z,50.04
2019-03-04T07:44:21.613Z,49.51
2019-03-04T07:44:57.002Z,49.38
2019-03-04T07:45:32.432Z,49.26
2019-03-04T07:46:07.996Z,49.16
2019-03-04T07:46:43.387Z,49.34
2019-03-04T07:47:19.328Z,49.13